createdAt,value
2023-01-04T00:00:18.563Z,2.00
2023-01-04T00:02:45.222Z,1.60
2023-01-04T00:05:12.017Z,2.25
2023-01-04T00:07:38.477Z,1.98
2023-01-04T00:10:05.426Z,1.92
2023-01-04T00:12:35.445Z,1.80
2023-01-04T00:15:01.937Z,1.63
2023-01-04T00:17:30.886Z,2.13
2023-01-04T00:19:57.233Z,1.90
2023-01-04T00:22:23.580Z,1.42
2023-01-04T00:24:49.989Z,1.60
2023-01-04T00:27:16.349Z,2.45
2023-01-04T00:29:42.909Z,2.47
2023-01-04T00:32:09.847Z,3.00
2023-01-04T00:34:36.230Z,2.40
2023-01-04T00:37:02.579Z,2.00
2023-01-04T00:39:31.401Z,2.08
2023-01-04T00:41:59.757Z,1.63
2023-01-04T00:44:28.195Z,2.90
2023-01-04T00:46:54.886Z,2.42
2023-01-04T00:49:21.286Z,1.98
2023-01-04T00:51:47.668Z,1.45
2023-01-04T00:54:15.535Z,1.17
2023-01-04T00:56:42.201Z,1.40
2023-01-04T00:59:11.734Z,2.03
2023-01-04T01:01:40.288Z,1.80
2023-01-04T01:04:07.191Z,2.58
2023-01-04T01:06:34.895Z,1.35
2023-01-04T01:09:02.057Z,2.42
2023-01-04T01:11:29.901Z,2.15
2023-01-04T01:13:57.611Z,2.10
2023-01-04T01:16:53.074Z,1.92
2023-01-04T01:19:12.196Z,2.20
2023-01-04T01:21:39.139Z,2.17
2023-01-04T01:24:06.553Z,1.70
2023-01-04T01:26:33.214Z,1.17
2023-01-04T01:28:59.669Z,0.90
2023-01-04T01:31:28.241Z,1.63
2023-01-04T01:33:56.351Z,1.77
2023-01-04T01:36:24.846Z,2.60
2023-01-04T01:38:51.563Z,2.03
2023-01-04T01:41:26.960Z,2.13
2023-01-04T01:44:01.032Z,2.30
2023-01-04T01:46:36.933Z,2.00
2023-01-04T01:49:10.273Z,2.33
2023-01-04T01:51:36.899Z,2.95
2023-01-04T01:54:29.666Z,1.25
2023-01-04T01:56:59.903Z,2.63
2023-01-04T01:59:27.667Z,3.22
2023-01-04T02:01:54.427Z,2.17
2023-01-04T02:04:21.082Z,2.20
2023-01-04T02:06:51.868Z,1.92
2023-01-04T02:09:19.368Z,2.40
2023-01-04T02:11:45.798Z,2.55
2023-01-04T02:14:13.225Z,3.15
2023-01-04T02:17:03.930Z,2.40
2023-01-04T02:20:21.556Z,2.53
2023-01-04T02:22:59.847Z,2.42
2023-01-04T02:26:09.061Z,3.17
2023-01-04T02:28:38.137Z,3.58
2023-01-04T02:31:40.330Z,2.97
2023-01-04T02:34:52.224Z,2.92
2023-01-04T02:37:41.444Z,2.67
2023-01-04T02:40:11.390Z,2.72
2023-01-04T02:42:46.527Z,2.92
2023-01-04T02:45:16.911Z,2.47
2023-01-04T02:47:43.571Z,3.67
2023-01-04T02:50:21.959Z,3.70
2023-01-04T02:52:48.359Z,3.70
2023-01-04T02:55:15.157Z,3.85
2023-01-04T02:57:56.919Z,3.35
2023-01-04T03:00:34.951Z,3.00
2023-01-04T03:03:20.491Z,3.05
2023-01-04T03:06:06.583Z,2.55
2023-01-04T03:08:40.354Z,4.80
2023-01-04T03:11:12.612Z,3.63
2023-01-04T03:13:44.195Z,3.92
2023-01-04T03:16:16.131Z,3.45
2023-01-04T03:18:48.267Z,3.78
2023-01-04T03:21:16.951Z,4.35
2023-01-04T03:23:48.477Z,5.13
2023-01-04T03:26:22.432Z,4.45
2023-01-04T03:28:50.238Z,6.18
2023-01-04T03:31:24.719Z,3.70
2023-01-04T03:33:51.375Z,3.75
2023-01-04T03:36:39.581Z,5.40
2023-01-04T03:39:16.241Z,6.15
2023-01-04T03:42:20.559Z,5.35
2023-01-04T03:44:56.426Z,4.50
2023-01-04T03:47:29.414Z,4.57
2023-01-04T03:50:03.159Z,5.40
2023-01-04T03:52:31.862Z,4.72
2023-01-04T03:55:02.091Z,3.90
2023-01-04T03:57:28.862Z,4.00
2023-01-04T04:00:02.188Z,4.68
2023-01-04T04:02:30.469Z,5.15
2023-01-04T04:04:58.507Z,3.17
2023-01-04T04:07:24.869Z,4.30
2023-01-04T04:09:51.312Z,2.95
2023-01-04T04:12:17.917Z,3.42
2023-01-04T04:14:44.386Z,4.20
2023-01-04T04:17:10.774Z,3.92
2023-01-04T04:19:37.160Z,3.28
2023-01-04T04:22:03.654Z,2.90
2023-01-04T04:24:30.131Z,3.42
2023-01-04T04:26:56.531Z,2.95
2023-01-04T04:29:24.032Z,3.80
2023-01-04T04:31:50.618Z,3.53
2023-01-04T04:34:17.380Z,2.70
2023-01-04T04:36:43.845Z,2.80
2023-01-04T04:39:11.222Z,3.10
2023-01-04T04:41:38.355Z,2.90
2023-01-04T04:44:15.229Z,2.70
2023-01-04T04:46:42.694Z,3.42
2023-01-04T04:49:10.252Z,3.20
2023-01-04T04:51:37.897Z,3.95
2023-01-04T04:54:07.563Z,3.40
2023-01-04T04:56:34.734Z,2.58
2023-01-04T04:59:01.296Z,3.35
2023-01-04T05:01:27.767Z,2.85
2023-01-04T05:03:54.484Z,3.90
2023-01-04T05:06:20.876Z,5.07
2023-01-04T05:08:47.538Z,3.83
2023-01-04T05:11:16.145Z,3.03
2023-01-04T05:13:42.560Z,3.65
2023-01-04T05:16:10.277Z,3.85
2023-01-04T05:18:37.150Z,3.80
2023-01-04T05:21:03.586Z,3.80
2023-01-04T05:23:30.157Z,4.32
2023-01-04T05:26:00.063Z,3.55
2023-01-04T05:28:27.016Z,5.20
2023-01-04T05:30:54.093Z,4.95
2023-01-04T05:33:23.326Z,5.13
2023-01-04T05:35:50.887Z,5.90
2023-01-04T05:38:18.099Z,5.43
2023-01-04T05:40:45.052Z,4.78
2023-01-04T05:43:11.866Z,5.75
2023-01-04T05:45:38.568Z,5.82
2023-01-04T05:48:05.160Z,4.88
2023-01-04T05:50:31.657Z,6.20
2023-01-04T05:52:58.238Z,5.40
2023-01-04T05:55:24.624Z,4.32
2023-01-04T05:57:51.061Z,4.28
2023-01-04T06:00:17.679Z,3.90
2023-01-04T06:02:44.630Z,3.65
2023-01-04T06:05:12.205Z,4.40
2023-01-04T06:07:39.881Z,3.42
2023-01-04T06:10:07.772Z,4.40
2023-01-04T06:12:34.297Z,3.80
2023-01-04T06:15:01.228Z,4.13
2023-01-04T06:17:27.891Z,2.78
2023-01-04T06:19:54.483Z,4.10
2023-01-04T06:22:21.368Z,4.25
2023-01-04T06:24:48.044Z,3.90
2023-01-04T06:27:14.906Z,4.15
2023-01-04T06:29:41.240Z,3.47
2023-01-04T06:32:07.669Z,3.13
2023-01-04T06:34:34.161Z,3.28
2023-01-04T06:37:00.558Z,2.38
2023-01-04T06:39:27.047Z,2.90
2023-01-04T06:41:53.706Z,2.28
2023-01-04T06:44:20.442Z,2.65
2023-01-04T06:46:46.813Z,2.35
2023-01-04T06:49:13.569Z,2.40
2023-01-04T06:51:40.435Z,2.85
2023-01-04T06:54:06.974Z,2.17
2023-01-04T06:56:33.321Z,2.67
2023-01-04T06:59:00.039Z,3.08
2023-01-04T07:01:26.517Z,2.70
2023-01-04T07:03:52.975Z,2.92
2023-01-04T07:06:19.856Z,3.40
2023-01-04T07:08:46.269Z,4.38
2023-01-04T07:11:12.596Z,4.47
2023-01-04T07:13:39.219Z,4.40
2023-01-04T07:16:06.243Z,3.10
2023-01-04T07:18:32.764Z,4.20
2023-01-04T07:20:59.349Z,3.40
2023-01-04T07:23:25.827Z,3.20
2023-01-04T07:25:52.338Z,2.08
2023-01-04T07:28:18.692Z,2.55
2023-01-04T07:30:45.071Z,2.80
2023-01-04T07:33:11.468Z,1.80
2023-01-04T07:35:38.229Z,1.77
2023-01-04T07:38:04.770Z,2.50
2023-01-04T07:40:31.220Z,2.30
2023-01-04T07:42:59.300Z,2.40
2023-01-04T07:45:26.366Z,2.30
2023-01-04T07:47:52.776Z,2.22
2023-01-04T07:50:19.196Z,1.90
2023-01-04T07:52:45.678Z,2.95
2023-01-04T07:55:12.144Z,1.60
2023-01-04T07:57:38.657Z,2.30
2023-01-04T08:00:05.651Z,2.78
2023-01-04T08:02:32.103Z,2.97
2023-01-04T08:04:58.800Z,1.38
2023-01-04T08:07:25.241Z,1.58
2023-01-04T08:09:51.704Z,2.55
2023-01-04T08:12:18.097Z,1.58
2023-01-04T08:14:44.486Z,1.48
2023-01-04T08:17:11.441Z,1.50
2023-01-04T08:19:37.970Z,1.88
2023-01-04T08:22:04.420Z,1.42
2023-01-04T08:27:14.096Z,1.50
2023-01-04T08:29:40.491Z,1.50
2023-01-04T08:32:06.849Z,1.50
2023-01-04T08:34:33.423Z,1.30
2023-01-04T08:37:00.042Z,1.33
2023-01-04T08:39:29.697Z,1.10
2023-01-04T08:41:59.427Z,1.50
2023-01-04T08:44:27.816Z,1.52
2023-01-04T08:46:55.002Z,2.05
2023-01-04T08:49:22.534Z,1.77
2023-01-04T08:51:49.593Z,1.38
2023-01-04T08:54:16.358Z,0.82
2023-01-04T08:56:43.810Z,1.38
2023-01-04T08:59:11.786Z,0.88
2023-01-04T09:01:39.289Z,1.15
2023-01-04T09:04:06.431Z,1.27
2023-01-04T09:06:33.078Z,1.52
2023-01-04T09:09:00.025Z,1.20
2023-01-04T09:11:28.774Z,1.20
2023-01-04T09:14:09.448Z,0.90
2023-01-04T09:16:38.118Z,1.40
2023-01-04T09:19:08.022Z,1.55
2023-01-04T09:21:35.101Z,1.90
2023-01-04T09:24:02.237Z,1.90
2023-01-04T09:26:28.751Z,1.73
2023-01-04T09:28:56.133Z,2.25
2023-01-04T09:31:28.300Z,2.03
2023-01-04T09:36:42.919Z,2.55
2023-01-04T09:39:14.838Z,2.25
2023-01-04T09:42:16.880Z,2.80
2023-01-04T09:45:22.568Z,2.80
2023-01-04T09:47:41.388Z,2.47
2023-01-04T09:50:16.598Z,2.30
2023-01-04T09:52:46.050Z,2.05
2023-01-04T09:55:39.497Z,2.03
2023-01-04T09:58:11.520Z,2.50
2023-01-04T10:00:45.518Z,2.28
2023-01-04T10:03:18.368Z,2.17
2023-01-04T10:05:44.996Z,2.55
2023-01-04T10:08:19.876Z,2.20
2023-01-04T10:11:10.324Z,2.15
2023-01-04T10:13:56.919Z,2.03
2023-01-04T10:17:12.029Z,1.88
2023-01-04T10:22:55.841Z,1.50
2023-01-04T10:25:31.446Z,1.42
2023-01-04T10:28:24.067Z,1.30
2023-01-04T10:31:40.100Z,1.52
2023-01-04T10:34:24.575Z,0.95
2023-01-04T10:36:57.318Z,1.20
2023-01-04T10:39:32.483Z,1.50
2023-01-04T10:42:30.861Z,1.20
2023-01-04T10:45:11.770Z,1.05
2023-01-04T10:48:20.406Z,0.90
2023-01-04T10:51:02.140Z,0.98
2023-01-04T10:53:55.039Z,0.80
2023-01-04T10:56:49.483Z,0.80
2023-01-04T10:59:33.515Z,0.95
2023-01-04T11:02:00.182Z,0.70
2023-01-04T11:04:35.272Z,0.70
2023-01-04T11:07:05.948Z,0.68
2023-01-04T11:09:44.963Z,1.17
2023-01-04T11:12:14.864Z,0.95
2023-01-04T11:14:41.602Z,0.70
2023-01-04T11:17:11.531Z,1.00
2023-01-04T11:19:39.292Z,0.70
2023-01-04T11:22:19.986Z,1.20
2023-01-04T11:25:24.556Z,1.20
2023-01-04T11:27:58.931Z,0.65
2023-01-04T11:30:32.224Z,0.70
2023-01-04T11:33:04.698Z,0.50
2023-01-04T11:35:50.093Z,1.35
2023-01-04T11:38:19.730Z,0.50
2023-01-04T11:41:15.798Z,0.70
2023-01-04T11:43:59.754Z,1.45
2023-01-04T11:46:27.564Z,0.80
2023-01-04T11:48:54.249Z,0.95
2023-01-04T11:51:20.529Z,1.08
2023-01-04T11:54:00.480Z,1.30
2023-01-04T11:56:34.330Z,1.95
2023-01-04T11:59:24.557Z,0.93
2023-01-04T12:02:09.814Z,1.50
2023-01-04T12:04:36.548Z,1.65
2023-01-04T12:07:17.101Z,1.20
2023-01-04T12:09:43.427Z,1.70
2023-01-04T12:12:16.105Z,1.10
2023-01-04T12:14:49.168Z,1.50
2023-01-04T12:17:19.626Z,2.00
2023-01-04T12:19:47.268Z,1.80
2023-01-04T12:22:24.829Z,1.45
2023-01-04T12:24:58.433Z,1.20
2023-01-04T12:27:27.204Z,1.30
2023-01-04T12:29:55.584Z,1.00
2023-01-04T12:32:21.876Z,1.10
2023-01-04T12:34:48.618Z,1.67
2023-01-04T12:37:39.867Z,1.17
2023-01-04T12:40:44.814Z,1.10
2023-01-04T12:43:20.051Z,1.20
2023-01-04T12:45:47.673Z,0.90
2023-01-04T12:48:28.978Z,1.10
2023-01-04T12:51:42.693Z,1.25
2023-01-04T12:54:24.113Z,1.33
2023-01-04T12:57:10.592Z,0.95
2023-01-04T12:59:39.621Z,0.73
2023-01-04T13:02:36.169Z,0.82
2023-01-04T13:05:54.761Z,0.80
2023-01-04T13:08:11.926Z,0.70
2023-01-04T13:10:42.106Z,0.98
2023-01-04T13:13:23.475Z,1.60
2023-01-04T13:16:17.308Z,0.73
2023-01-04T13:18:50.461Z,1.33
2023-01-04T13:21:27.397Z,1.02
2023-01-04T13:23:56.398Z,0.80
2023-01-04T13:26:41.979Z,0.90
2023-01-04T13:29:25.887Z,0.60
2023-01-04T13:31:59.390Z,0.93
2023-01-04T13:34:50.522Z,1.52
2023-01-04T13:37:24.866Z,1.38
2023-01-04T13:39:59.951Z,0.98
2023-01-04T13:42:32.235Z,1.00
2023-01-04T13:45:42.047Z,1.10
2023-01-04T13:48:12.437Z,0.50
2023-01-04T13:50:43.894Z,1.38
2023-01-04T13:53:22.116Z,4.50
2023-01-04T13:55:57.128Z,2.78
2023-01-04T13:58:34.641Z,1.73
2023-01-04T14:01:20.020Z,4.65
2023-01-04T14:03:51.676Z,0.98
2023-01-04T14:06:28.755Z,1.90
2023-01-04T14:09:07.144Z,1.65
2023-01-04T14:11:42.002Z,3.10
2023-01-04T14:14:29.188Z,1.63
2023-01-04T14:17:14.462Z,3.30
2023-01-04T14:19:45.583Z,1.60
2023-01-04T14:22:21.276Z,0.95
2023-01-04T14:27:42.688Z,0.77
2023-01-04T14:30:22.991Z,0.70
2023-01-04T14:32:57.966Z,0.80
2023-01-04T14:35:25.426Z,0.95
2023-01-04T14:38:02.504Z,0.40
2023-01-04T14:40:30.750Z,0.95
2023-01-04T14:42:58.359Z,1.45
2023-01-04T14:45:25.222Z,0.88
2023-01-04T14:47:51.605Z,1.48
2023-01-04T14:50:18.143Z,0.68
2023-01-04T14:52:52.372Z,0.82
2023-01-04T14:55:18.955Z,0.85
2023-01-04T14:57:45.387Z,0.90
2023-01-04T15:00:19.417Z,1.58
2023-01-04T15:02:47.094Z,0.98
2023-01-04T15:05:13.673Z,0.93
2023-01-04T15:07:40.260Z,1.13
2023-01-04T15:10:19.055Z,1.80
2023-01-04T15:12:45.715Z,4.93
2023-01-04T15:15:12.470Z,1.90
2023-01-04T15:17:39.231Z,2.33
2023-01-04T15:20:06.613Z,1.30
2023-01-04T15:22:32.963Z,2.33
2023-01-04T15:24:59.628Z,2.00
2023-01-04T15:27:31.303Z,1.55
2023-01-04T15:29:59.380Z,1.23
2023-01-04T15:32:25.743Z,1.52
2023-01-04T15:34:52.172Z,1.58
2023-01-04T15:37:23.753Z,1.80
2023-01-04T15:39:53.203Z,1.63
2023-01-04T15:42:23.402Z,1.33
2023-01-04T15:44:50.086Z,1.25
2023-01-04T15:47:16.572Z,1.27
2023-01-04T15:49:42.964Z,1.92
2023-01-04T15:52:09.323Z,1.48
2023-01-04T15:54:36.069Z,2.05
2023-01-04T15:57:02.713Z,2.92
2023-01-04T15:59:29.217Z,2.13
2023-01-04T16:01:55.753Z,2.42
2023-01-04T16:04:22.459Z,2.70
2023-01-04T16:06:48.955Z,2.13
2023-01-04T16:09:15.719Z,2.00
2023-01-04T16:11:44.683Z,1.35
2023-01-04T16:14:11.313Z,2.63
2023-01-04T16:16:39.684Z,1.90
2023-01-04T16:19:06.178Z,1.77
2023-01-04T16:21:32.720Z,1.98
2023-01-04T16:24:05.533Z,1.67
2023-01-04T16:26:33.746Z,1.75
2023-01-04T16:29:00.131Z,2.17
2023-01-04T16:31:26.545Z,1.92
2023-01-04T16:33:53.777Z,2.55
2023-01-04T16:36:20.405Z,1.73
2023-01-04T16:38:46.731Z,1.65
2023-01-04T16:41:18.400Z,12.27
2023-01-04T16:43:47.219Z,1.98
2023-01-04T16:46:18.369Z,2.28
2023-01-04T16:48:47.329Z,2.33
2023-01-04T16:51:14.086Z,2.92
2023-01-04T16:53:40.932Z,1.80
2023-01-04T16:56:09.977Z,2.88
2023-01-04T16:58:36.707Z,1.77
2023-01-04T17:01:12.202Z,3.58
2023-01-04T17:03:39.251Z,5.05
2023-01-04T17:06:14.793Z,1.70
2023-01-04T17:08:43.898Z,1.63
2023-01-04T17:12:04.916Z,2.47
2023-01-04T17:14:03.027Z,1.60
2023-01-04T17:16:34.441Z,1.63
2023-01-04T17:19:01.666Z,1.73
2023-01-04T17:21:34.767Z,2.17
2023-01-04T17:24:02.552Z,1.88
2023-01-04T17:26:31.235Z,2.22
2023-01-04T17:28:59.305Z,2.15
2023-01-04T17:31:35.138Z,2.38
2023-01-04T17:34:02.121Z,3.25
2023-01-04T17:36:29.020Z,2.30
2023-01-04T17:38:55.857Z,2.20
2023-01-04T17:41:24.447Z,2.38
2023-01-04T17:43:58.076Z,1.92
2023-01-04T17:46:25.325Z,1.55
2023-01-04T17:49:20.605Z,2.13
2023-01-04T17:51:38.813Z,1.70
2023-01-04T17:54:05.882Z,2.38
2023-01-04T17:56:32.707Z,2.25
2023-01-04T17:59:01.373Z,2.00
2023-01-04T18:01:28.153Z,2.90
2023-01-04T18:03:56.937Z,3.38
2023-01-04T18:06:26.263Z,4.63
2023-01-04T18:08:53.339Z,2.75
2023-01-04T18:11:21.504Z,1.98
2023-01-04T18:13:48.182Z,3.08
2023-01-04T18:16:24.254Z,1.95
2023-01-04T18:21:28.756Z,2.05
2023-01-04T18:27:19.316Z,2.50
2023-01-04T18:29:30.244Z,2.88
2023-01-04T18:31:56.802Z,2.42
2023-01-04T18:34:23.472Z,3.03
2023-01-04T18:36:50.916Z,3.53
2023-01-04T18:39:17.658Z,3.50
2023-01-04T18:41:44.042Z,2.38
2023-01-04T18:44:32.182Z,2.72
2023-01-04T18:46:57.016Z,3.47
2023-01-04T18:49:23.385Z,2.70
2023-01-04T18:51:53.587Z,3.40
2023-01-04T18:54:20.213Z,3.58
2023-01-04T18:56:47.351Z,3.47
2023-01-04T18:59:14.324Z,2.60
2023-01-04T19:01:41.467Z,3.88
2023-01-04T19:04:08.106Z,2.65
2023-01-04T19:06:37.630Z,3.53
2023-01-04T19:09:06.740Z,2.80
2023-01-04T19:11:34.489Z,3.38
2023-01-04T19:14:01.561Z,3.25
2023-01-04T19:16:28.363Z,2.40
2023-01-04T19:18:55.007Z,3.28
2023-01-04T19:21:21.877Z,3.00
2023-01-04T19:23:49.613Z,3.15
2023-01-04T19:26:15.975Z,1.95
2023-01-04T19:28:42.577Z,2.75
2023-01-04T19:31:10.191Z,2.95
2023-01-04T19:33:39.795Z,2.90
2023-01-04T19:36:08.331Z,2.72
2023-01-04T19:38:35.163Z,2.92
2023-01-04T19:41:01.601Z,3.72
2023-01-04T19:43:28.110Z,2.88
2023-01-04T19:45:55.313Z,2.60
2023-01-04T19:48:21.767Z,1.98
2023-01-04T19:51:00.851Z,2.47
2023-01-04T19:53:27.250Z,3.95
2023-01-04T19:55:56.287Z,3.75
2023-01-04T19:58:22.717Z,2.00
2023-01-04T20:00:54.565Z,2.50
2023-01-04T20:03:24.149Z,2.03
2023-01-04T20:05:50.680Z,2.83
2023-01-04T20:08:17.671Z,2.42
2023-01-04T20:10:44.425Z,2.33
2023-01-04T20:13:11.213Z,3.08
2023-01-04T20:15:39.248Z,2.85
2023-01-04T20:18:11.917Z,2.65
2023-01-04T20:20:44.627Z,2.80
2023-01-04T20:25:46.341Z,1.55
2023-01-04T20:28:16.382Z,2.13
2023-01-04T20:30:43.365Z,3.05
2023-01-04T20:33:12.341Z,3.05
2023-01-04T20:35:41.480Z,2.15
2023-01-04T20:38:09.153Z,2.42
2023-01-04T20:40:36.801Z,2.25
2023-01-04T20:43:03.206Z,2.35
2023-01-04T20:45:29.631Z,2.53
2023-01-04T20:47:56.291Z,1.83
2023-01-04T20:50:22.751Z,2.28
2023-01-04T20:52:49.063Z,2.13
2023-01-04T20:55:17.774Z,2.25
2023-01-04T20:57:44.294Z,3.00
2023-01-04T21:00:11.420Z,3.15
2023-01-04T21:02:38.490Z,2.40
2023-01-04T21:05:05.748Z,3.60
2023-01-04T21:07:32.038Z,2.25
2023-01-04T21:09:58.394Z,1.73
2023-01-04T21:12:25.774Z,2.42
2023-01-04T21:14:52.117Z,1.65
2023-01-04T21:17:18.532Z,1.98
2023-01-04T21:19:44.933Z,2.08
2023-01-04T21:22:11.500Z,2.05
2023-01-04T21:24:37.953Z,2.28
2023-01-04T21:27:04.392Z,1.92
2023-01-04T21:29:30.905Z,1.90
2023-01-04T21:31:57.603Z,2.22
2023-01-04T21:34:23.951Z,1.95
2023-01-04T21:36:50.366Z,2.45
2023-01-04T21:39:16.753Z,2.15
2023-01-04T21:41:47.877Z,1.50
2023-01-04T21:44:15.084Z,1.63
2023-01-04T21:46:41.480Z,3.00
2023-01-04T21:49:09.282Z,2.03
2023-01-04T21:51:36.025Z,2.70
2023-01-04T21:54:02.465Z,1.98
2023-01-04T21:56:28.896Z,1.30
2023-01-04T21:58:55.274Z,2.00
2023-01-04T22:01:27.330Z,2.58
2023-01-04T22:04:01.004Z,3.08
2023-01-04T22:06:27.358Z,2.97
2023-01-04T22:08:53.871Z,1.65
2023-01-04T22:11:20.666Z,1.70
2023-01-04T22:13:47.098Z,2.67
2023-01-04T22:16:16.563Z,2.50
2023-01-04T22:18:49.993Z,2.58
2023-01-04T22:21:19.133Z,2.17
2023-01-04T22:23:46.452Z,1.75
2023-01-04T22:26:12.986Z,3.30
2023-01-04T22:28:40.206Z,1.70
2023-01-04T22:31:10.753Z,3.38
2023-01-04T22:33:38.654Z,2.38
2023-01-04T22:36:08.909Z,2.28
2023-01-04T22:38:36.880Z,2.53
2023-01-04T22:41:15.171Z,2.33
2023-01-04T22:43:42.982Z,1.77
2023-01-04T22:46:16.891Z,2.75
2023-01-04T22:48:44.044Z,1.80
2023-01-04T22:51:14.029Z,2.40
2023-01-04T22:53:40.581Z,1.90
2023-01-04T22:56:21.028Z,2.45
2023-01-04T22:58:53.115Z,1.52
2023-01-04T23:01:21.491Z,1.90
2023-01-04T23:03:48.085Z,2.55
2023-01-04T23:06:14.508Z,2.28
2023-01-04T23:08:41.143Z,2.35
2023-01-04T23:11:14.152Z,2.78
2023-01-04T23:13:40.912Z,2.70
2023-01-04T23:16:10.442Z,2.05
2023-01-04T23:18:37.528Z,2.30
2023-01-04T23:21:07.710Z,2.45
2023-01-04T23:23:34.605Z,1.58
2023-01-04T23:26:10.761Z,2.72
2023-01-04T23:28:37.503Z,3.15
2023-01-04T23:31:06.436Z,2.00
2023-01-04T23:33:36.302Z,2.35
2023-01-04T23:38:41.634Z,2.00
2023-01-04T23:41:09.422Z,2.58
2023-01-04T23:43:37.211Z,1.35
2023-01-04T23:46:15.914Z,2.15
2023-01-04T23:48:42.918Z,2.20
2023-01-04T23:51:11.922Z,2.47
2023-01-04T23:53:38.284Z,2.08
2023-01-04T23:56:07.710Z,2.25
2023-01-04T23:58:34.449Z,3.05
